createdAt,value
2022-08-26T00:01:59.861Z,100214.44
2022-08-26T00:04:50.425Z,100205.34
2022-08-26T00:07:39.122Z,100208.59
2022-08-26T00:10:27.871Z,100206.13
2022-08-26T00:13:16.620Z,100209.88
2022-08-26T00:16:09.513Z,100204.28
2022-08-26T00:19:00.287Z,100197.28
2022-08-26T00:21:51.264Z,100201.59
2022-08-26T00:24:39.977Z,100198.91
2022-08-26T00:27:36.494Z,100204.28
2022-08-26T00:30:29.103Z,100200.19
2022-08-26T00:33:20.213Z,100191.31
2022-08-26T00:36:09.416Z,100190.00
2022-08-26T00:39:10.637Z,100184.28
2022-08-26T00:42:00.488Z,100198.31
2022-08-26T00:44:49.037Z,100189.44
2022-08-26T00:47:42.425Z,100191.31
2022-08-26T00:50:35.017Z,100187.56
2022-08-26T00:53:25.991Z,100179.50
2022-08-26T00:56:20.651Z,100179.25
2022-08-26T00:59:11.331Z,100176.81
2022-08-26T01:02:00.258Z,100180.56
2022-08-26T01:04:55.911Z,100175.97
2022-08-26T01:07:44.982Z,100178.91
2022-08-26T01:10:33.525Z,100191.91
2022-08-26T01:13:24.001Z,100177.41
2022-08-26T01:16:14.862Z,100178.44
2022-08-26T01:19:09.655Z,100178.44
2022-08-26T01:22:00.290Z,100180.56
2022-08-26T01:24:50.435Z,100178.91
2022-08-26T01:27:39.514Z,100175.19
2022-08-26T01:30:29.087Z,100174.56
2022-08-26T01:33:19.733Z,100175.19
2022-08-26T01:36:09.053Z,100171.44
2022-08-26T01:38:57.618Z,100174.13
2022-08-26T01:41:48.141Z,100169.81
2022-08-26T01:44:46.054Z,100171.44
2022-08-26T01:47:36.501Z,100179.50
2022-08-26T01:50:30.619Z,100178.66
2022-08-26T01:53:21.452Z,100180.56
2022-08-26T01:56:12.333Z,100176.22
2022-08-26T01:59:05.578Z,100176.81
2022-08-26T02:01:54.685Z,100174.13
2022-08-26T02:04:48.921Z,100176.81
2022-08-26T02:07:39.155Z,100178.91
2022-08-26T02:10:28.132Z,100180.56
2022-08-26T02:13:16.639Z,100179.25
2022-08-26T02:16:07.882Z,100177.88
2022-08-26T02:18:59.511Z,100171.44
2022-08-26T02:21:51.247Z,100176.81
2022-08-26T02:24:50.253Z,100182.63
2022-08-26T02:27:40.409Z,100178.91
2022-08-26T02:30:31.958Z,100178.91
2022-08-26T02:33:21.799Z,100179.72
2022-08-26T02:36:12.111Z,100177.63
2022-08-26T02:39:02.049Z,100173.53
2022-08-26T02:41:51.402Z,100181.34
2022-08-26T02:44:40.015Z,100183.25
2022-08-26T02:47:29.013Z,100176.81
2022-08-26T02:50:19.382Z,100169.81
2022-08-26T02:53:08.516Z,100170.59
2022-08-26T02:55:57.156Z,100173.53
2022-08-26T02:58:48.717Z,100167.13
2022-08-26T03:01:37.987Z,100162.78
2022-08-26T03:04:26.701Z,100161.75
2022-08-26T03:07:16.672Z,100164.44
2022-08-26T03:10:08.217Z,100171.44
2022-08-26T03:12:56.906Z,100166.88
2022-08-26T03:15:47.715Z,100175.19
2022-08-26T03:18:36.710Z,100162.31
2022-08-26T03:21:25.196Z,100159.06
2022-08-26T03:24:17.522Z,100162.78
2022-08-26T03:27:07.350Z,100153.69
2022-08-26T03:30:22.327Z,100160.09
2022-08-26T03:33:11.669Z,100157.41
2022-08-26T03:36:00.593Z,100159.06
2022-08-26T03:38:49.245Z,100152.84
2022-08-26T03:41:39.237Z,100151.19
2022-08-26T03:44:27.889Z,100153.69
2022-08-26T03:47:16.447Z,100149.34
2022-08-26T03:50:05.806Z,100157.16
2022-08-26T03:52:55.723Z,100154.72
2022-08-26T03:55:44.265Z,100148.31
2022-08-26T03:58:37.267Z,100148.72
2022-08-26T04:01:26.485Z,100154.72
2022-08-26T04:04:15.537Z,100152.03
2022-08-26T04:07:04.306Z,100149.53
2022-08-26T04:09:56.241Z,100146.66
2022-08-26T04:12:45.335Z,100142.94
2022-08-26T04:15:35.209Z,100137.53
2022-08-26T04:18:23.702Z,100142.09
2022-08-26T04:21:12.651Z,100144.16
2022-08-26T04:24:04.250Z,100146.66
2022-08-26T04:26:53.193Z,100145.81
2022-08-26T04:29:41.720Z,100140.66
2022-08-26T04:32:31.630Z,100146.66
2022-08-26T04:35:26.111Z,100152.84
2022-08-26T04:38:16.192Z,100153.06
2022-08-26T04:41:05.606Z,100152.03
2022-08-26T04:44:04.811Z,100153.06
2022-08-26T04:46:53.728Z,100147.25
2022-08-26T04:49:45.372Z,100152.03
2022-08-26T04:52:34.280Z,100148.31
2022-08-26T04:55:25.216Z,100149.34
2022-08-26T04:58:27.185Z,100146.66
2022-08-26T05:01:15.882Z,100147.47
2022-08-26T05:04:08.064Z,100146.66
2022-08-26T05:07:02.659Z,100151.56
2022-08-26T05:09:51.730Z,100146.41
2022-08-26T05:12:40.227Z,100145.00
2022-08-26T05:15:29.185Z,100149.94
2022-08-26T05:18:20.718Z,100146.19
2022-08-26T05:21:10.317Z,100149.09
2022-08-26T05:24:00.984Z,100154.47
2022-08-26T05:26:50.605Z,100159.06
2022-08-26T05:29:39.621Z,100159.06
2022-08-26T05:32:28.420Z,100159.84
2022-08-26T05:35:18.958Z,100153.69
2022-08-26T05:38:12.675Z,100149.94
2022-08-26T05:41:03.151Z,100146.41
2022-08-26T05:43:52.988Z,100146.66
2022-08-26T05:46:44.650Z,100145.63
2022-08-26T05:49:33.309Z,100153.69
2022-08-26T05:52:24.527Z,100148.88
2022-08-26T05:55:13.281Z,100149.69
2022-08-26T05:58:03.270Z,100144.31
2022-08-26T06:00:59.542Z,100153.22
2022-08-26T06:03:52.692Z,100158.59
2022-08-26T06:06:41.683Z,100152.38
2022-08-26T06:09:31.760Z,100152.03
2022-08-26T06:12:21.329Z,100155.91
2022-08-26T06:15:12.720Z,100156.47
2022-08-26T06:18:04.174Z,100160.78
2022-08-26T06:20:57.773Z,100162.69
2022-08-26T06:24:06.248Z,100156.94
2022-08-26T06:26:57.080Z,100162.31
2022-08-26T06:29:45.693Z,100168.28
2022-08-26T06:32:36.261Z,100164.53
2022-08-26T06:35:25.061Z,100165.13
2022-08-26T06:38:13.915Z,100168.06
2022-08-26T06:41:02.507Z,100166.75
2022-08-26T06:43:51.686Z,100164.06
2022-08-26T06:46:40.316Z,100152.25
2022-08-26T06:49:30.270Z,100149.56
2022-08-26T06:52:22.947Z,100156.38
2022-08-26T06:55:13.500Z,100150.19
2022-08-26T06:58:02.098Z,100153.44
2022-08-26T07:00:52.872Z,100148.06
2022-08-26T07:03:41.347Z,100148.06
2022-08-26T07:06:32.618Z,100143.84
2022-08-26T07:09:22.666Z,100140.59
2022-08-26T07:12:11.144Z,100147.59
2022-08-26T07:14:59.684Z,100143.84
2022-08-26T07:17:48.411Z,100144.69
2022-08-26T07:20:41.114Z,100145.50
2022-08-26T07:23:33.513Z,100150.88
2022-08-26T07:26:23.713Z,100147.72
2022-08-26T07:29:14.794Z,100147.13
2022-08-26T07:32:03.745Z,100148.75
2022-08-26T07:34:52.619Z,100148.31
2022-08-26T07:37:41.197Z,100142.94
2022-08-26T07:40:31.169Z,100147.25
2022-08-26T07:43:19.908Z,100135.44
2022-08-26T07:46:13.259Z,100138.72
2022-08-26T07:49:04.524Z,100138.50
2022-08-26T07:51:53.343Z,100130.44
2022-08-26T07:54:41.861Z,100128.75
2022-08-26T07:57:31.885Z,100123.75
2022-08-26T08:00:20.808Z,100125.84
2022-08-26T08:03:09.558Z,100131.00
2022-08-26T08:05:58.983Z,100127.00
2022-08-26T08:08:47.674Z,100116.25
2022-08-26T08:11:39.406Z,100117.91
2022-08-26T08:14:29.651Z,100119.56
2022-08-26T08:17:19.341Z,100117.44
2022-08-26T08:20:09.279Z,100112.84
2022-08-26T08:23:00.177Z,100105.84
2022-08-26T08:25:49.236Z,100102.34
2022-08-26T08:28:38.206Z,100101.31
2022-08-26T08:31:55.849Z,100103.72
2022-08-26T08:37:32.677Z,100090.06
2022-08-26T08:40:25.867Z,100087.94
2022-08-26T08:43:16.319Z,100088.53
2022-08-26T08:46:08.855Z,100085.84
2022-08-26T08:49:00.707Z,100082.09
2022-08-26T08:51:54.071Z,100078.38
2022-08-26T08:54:44.201Z,100074.63
2022-08-26T08:57:40.428Z,100067.13
2022-08-26T09:00:30.271Z,100068.75
2022-08-26T09:03:36.037Z,100059.63
2022-08-26T09:06:27.609Z,100068.75
2022-08-26T09:09:21.747Z,100075.78
2022-08-26T09:12:14.958Z,100068.28
2022-08-26T09:15:08.278Z,100065.59
2022-08-26T09:18:02.034Z,100051.69
2022-08-26T09:20:58.282Z,100050.03
2022-08-26T09:23:49.774Z,100054.16
2022-08-26T09:26:48.013Z,100051.69
2022-08-26T09:29:45.572Z,100054.97
2022-08-26T09:32:39.026Z,100052.88
2022-08-26T09:35:31.608Z,100048.53
2022-08-26T09:38:26.858Z,100047.50
2022-08-26T09:41:27.387Z,100054.16
2022-08-26T09:44:18.298Z,100050.63
2022-08-26T09:47:08.899Z,100047.13
2022-08-26T09:50:04.144Z,100053.31
2022-08-26T09:53:09.949Z,100054.59
2022-08-26T09:56:17.461Z,100046.31
2022-08-26T09:59:11.966Z,100038.47
2022-08-26T10:02:36.689Z,100040.31
2022-08-26T10:05:31.896Z,100041.38
2022-08-26T10:08:26.167Z,100027.69
2022-08-26T10:11:20.538Z,100018.78
2022-08-26T10:14:16.150Z,100012.84
2022-08-26T10:17:07.782Z,100014.47
2022-08-26T10:19:59.422Z,100017.38
2022-08-26T10:22:52.676Z,100027.94
2022-08-26T10:25:46.724Z,100021.75
2022-08-26T10:28:39.663Z,100020.09
2022-08-26T10:31:40.338Z,100011.78
2022-08-26T10:34:29.481Z,100019.06
2022-08-26T10:37:21.438Z,100010.16
2022-08-26T10:40:13.586Z,100000.44
2022-08-26T10:43:11.290Z,99989.69
2022-08-26T10:46:03.028Z,99979.50
2022-08-26T10:48:57.282Z,99980.56
2022-08-26T10:51:59.208Z,99984.88
2022-08-26T10:54:53.793Z,99991.31
2022-08-26T10:57:48.241Z,99996.22
2022-08-26T11:00:58.682Z,99994.59
2022-08-26T11:03:58.202Z,99994.13
2022-08-26T11:06:46.877Z,99978.00
2022-08-26T11:09:47.263Z,99982.91
2022-08-26T11:12:58.922Z,99969.91
2022-08-26T11:16:01.156Z,99979.66
2022-08-26T11:18:54.629Z,99989.94
2022-08-26T11:21:50.854Z,99998.00
2022-08-26T11:25:12.059Z,99995.88
2022-08-26T11:28:01.341Z,99982.41
2022-08-26T11:30:56.964Z,99980.31
2022-08-26T11:33:49.435Z,99965.22
2022-08-26T11:36:56.849Z,99958.78
2022-08-26T11:39:54.810Z,99952.91
2022-08-26T11:42:45.501Z,99942.16
2022-08-26T11:45:37.533Z,99927.63
2022-08-26T11:48:32.528Z,99913.16
2022-08-26T11:51:24.353Z,99904.81
2022-08-26T11:54:16.539Z,99897.31
2022-08-26T11:57:11.678Z,99894.38
2022-08-26T12:00:01.320Z,99898.69
2022-08-26T12:02:50.281Z,99886.88
2022-08-26T12:05:45.070Z,99880.44
2022-08-26T12:08:34.989Z,99872.91
2022-08-26T12:11:27.596Z,99879.38
2022-08-26T12:14:19.981Z,99881.00
2022-08-26T12:17:13.482Z,99879.47
2022-08-26T12:20:02.000Z,99868.69
2022-08-26T12:22:50.581Z,99874.09
2022-08-26T12:25:40.251Z,99881.66
2022-08-26T12:28:30.252Z,99872.53
2022-08-26T12:31:28.665Z,99867.16
2022-08-26T12:34:18.560Z,99876.84
2022-08-26T12:37:07.715Z,99870.41
2022-08-26T12:39:56.427Z,99871.56
2022-08-26T12:42:45.079Z,99872.38
2022-08-26T12:45:37.750Z,99858.66
2022-08-26T12:48:28.083Z,99862.44
2022-08-26T12:51:24.832Z,99865.69
2022-08-26T12:54:16.034Z,99864.06
2022-08-26T12:57:11.326Z,99866.47
2022-08-26T13:00:40.223Z,99863.56
2022-08-26T13:03:43.827Z,99861.44
2022-08-26T13:06:35.028Z,99853.91
2022-08-26T13:09:32.124Z,99860.94
2022-08-26T13:12:31.893Z,99850.16
2022-08-26T13:15:20.608Z,99852.38
2022-08-26T13:18:09.175Z,99849.69
2022-08-26T13:20:59.084Z,99842.69
2022-08-26T13:23:47.885Z,99835.97
2022-08-26T13:26:36.675Z,99825.19
2022-08-26T13:29:25.430Z,99834.69
2022-08-26T13:32:14.240Z,99841.72
2022-08-26T13:35:05.841Z,99849.19
2022-08-26T13:37:55.936Z,99852.94
2022-08-26T13:40:44.771Z,99855.63
2022-08-26T13:43:33.919Z,99851.31
2022-08-26T13:46:22.483Z,99857.50
2022-08-26T13:49:11.477Z,99856.22
2022-08-26T13:52:00.032Z,99850.84
2022-08-26T13:54:49.963Z,99852.94
2022-08-26T13:57:39.305Z,99844.88
2022-08-26T14:00:27.892Z,99848.06
2022-08-26T14:03:16.493Z,99858.84
2022-08-26T14:06:05.557Z,99848.06
2022-08-26T14:08:54.045Z,99849.09
2022-08-26T14:11:53.866Z,99853.44
2022-08-26T14:14:43.573Z,99852.84
2022-08-26T14:17:32.577Z,99839.38
2022-08-26T14:20:24.475Z,99834.84
2022-08-26T14:23:14.212Z,99830.75
2022-08-26T14:26:08.030Z,99823.50
2022-08-26T14:28:58.880Z,99809.22
2022-08-26T14:31:48.396Z,99819.97
2022-08-26T14:34:36.934Z,99832.38
2022-08-26T14:37:25.982Z,99826.19
2022-08-26T14:40:15.091Z,99828.63
2022-08-26T14:43:03.864Z,99815.75
2022-08-26T14:45:53.902Z,99807.19
2022-08-26T14:48:42.498Z,99802.16
2022-08-26T14:51:31.419Z,99805.41
2022-08-26T14:54:20.697Z,99797.94
2022-08-26T14:57:11.244Z,99797.47
2022-08-26T14:59:59.923Z,99795.84
2022-08-26T15:02:50.042Z,99799.66
2022-08-26T15:05:39.855Z,99787.81
2022-08-26T15:08:28.462Z,99786.00
2022-08-26T15:11:18.332Z,99789.75
2022-08-26T15:14:07.029Z,99789.81
2022-08-26T15:16:57.156Z,99798.22
2022-08-26T15:19:47.434Z,99813.09
2022-08-26T15:22:36.111Z,99817.63
2022-08-26T15:25:24.836Z,99809.31
2022-08-26T15:28:13.736Z,99810.94
2022-08-26T15:31:02.367Z,99805.56
2022-08-26T15:33:52.445Z,99809.31
2022-08-26T15:36:43.629Z,99802.88
2022-08-26T15:39:32.481Z,99801.78
2022-08-26T15:42:21.937Z,99809.63
2022-08-26T15:45:11.242Z,99802.34
2022-08-26T15:48:01.126Z,99816.34
2022-08-26T15:51:02.031Z,99821.41
2022-08-26T15:53:52.918Z,99823.84
2022-08-26T15:56:41.476Z,99838.88
2022-08-26T15:59:32.225Z,99840.53
2022-08-26T16:02:21.457Z,99840.19
2022-08-26T16:05:11.304Z,99836.94
2022-08-26T16:08:00.074Z,99842.56
2022-08-26T16:10:51.291Z,99846.56
2022-08-26T16:13:40.275Z,99850.66
2022-08-26T16:16:29.140Z,99846.56
2022-08-26T16:19:18.057Z,99840.94
2022-08-26T16:22:08.078Z,99846.84
2022-08-26T16:24:58.320Z,99842.50
2022-08-26T16:27:48.428Z,99855.97
2022-08-26T16:30:36.993Z,99854.31
2022-08-26T16:33:29.505Z,99853.75
2022-08-26T16:36:18.398Z,99842.97
2022-08-26T16:39:08.226Z,99843.81
2022-08-26T16:41:58.722Z,99838.09
2022-08-26T16:44:48.763Z,99828.97
2022-08-26T16:47:37.627Z,99829.50
2022-08-26T16:50:26.399Z,99832.72
2022-08-26T16:56:09.022Z,99833.22
2022-08-26T16:58:57.946Z,99829.97
2022-08-26T17:01:47.933Z,99830.44
2022-08-26T17:04:37.341Z,99844.16
2022-08-26T17:07:26.507Z,99830.94
2022-08-26T17:10:15.427Z,99822.84
2022-08-26T17:13:03.951Z,99833.88
2022-08-26T17:15:58.329Z,99841.34
2022-08-26T17:18:49.932Z,99845.94
2022-08-26T17:21:39.649Z,99840.53
2022-08-26T17:24:28.183Z,99829.78
2022-08-26T17:27:16.688Z,99828.16
2022-08-26T17:30:06.914Z,99820.06
2022-08-26T17:32:55.831Z,99812.78
2022-08-26T17:35:46.605Z,99806.00
2022-08-26T17:38:35.618Z,99800.63
2022-08-26T17:41:24.225Z,99796.31
2022-08-26T17:44:12.775Z,99790.13
2022-08-26T17:47:01.279Z,99791.44
2022-08-26T17:49:49.871Z,99780.09
2022-08-26T17:52:40.016Z,99775.78
2022-08-26T17:55:28.921Z,99775.78
2022-08-26T17:58:18.932Z,99784.91
2022-08-26T18:01:07.979Z,99801.06
2022-08-26T18:04:00.343Z,99805.38
2022-08-26T18:06:49.565Z,99816.66
2022-08-26T18:09:39.427Z,99825.53
2022-08-26T18:12:28.144Z,99826.84
2022-08-26T18:15:18.761Z,99833.88
2022-08-26T18:18:07.616Z,99828.50
2022-08-26T18:21:01.907Z,99832.22
2022-08-26T18:23:51.720Z,99827.91
2022-08-26T18:26:47.962Z,99832.22
2022-08-26T18:29:36.537Z,99828.97
2022-08-26T18:32:33.914Z,99817.41
2022-08-26T18:35:22.393Z,99833.53
2022-08-26T18:38:13.732Z,99847.81
2022-08-26T18:41:05.610Z,99858.28
2022-08-26T18:43:55.937Z,99867.72
2022-08-26T18:46:45.863Z,99863.38
2022-08-26T18:49:34.354Z,99874.41
2022-08-26T18:52:23.093Z,99881.66
2022-08-26T18:55:12.653Z,99890.56
2022-08-26T18:58:01.227Z,99874.66
2022-08-26T19:00:51.654Z,99882.16
2022-08-26T19:03:40.275Z,99869.78
2022-08-26T19:06:32.788Z,99868.94
2022-08-26T19:09:21.929Z,99867.31
2022-08-26T19:12:11.651Z,99874.31
2022-08-26T19:15:02.421Z,99876.78
2022-08-26T19:17:52.277Z,99871.41
2022-08-26T19:20:46.035Z,99873.53
2022-08-26T19:23:35.509Z,99869.78
2022-08-26T19:26:25.011Z,99861.09
2022-08-26T19:29:13.804Z,99851.38
2022-08-26T19:32:02.939Z,99855.72
2022-08-26T19:34:53.329Z,99859.22
2022-08-26T19:37:41.813Z,99878.31
2022-08-26T19:40:31.022Z,99901.47
2022-08-26T19:43:19.569Z,99883.47
2022-08-26T19:46:12.832Z,99879.69
2022-08-26T19:49:01.448Z,99877.25
2022-08-26T19:51:51.445Z,99865.44
2022-08-26T19:54:40.374Z,99850.31
2022-08-26T19:57:29.031Z,99855.72
2022-08-26T20:00:20.651Z,99841.47
2022-08-26T20:03:13.075Z,99827.16
2022-08-26T20:06:05.999Z,99826.69
2022-08-26T20:08:56.476Z,99830.47
2022-08-26T20:11:45.417Z,99827.16
2022-08-26T20:14:35.939Z,99828.81
2022-08-26T20:17:24.466Z,99835.84
2022-08-26T20:20:33.131Z,99840.63
2022-08-26T20:23:22.102Z,99847.91
2022-08-26T20:26:12.091Z,99855.41
2022-08-26T20:29:01.325Z,99857.84
2022-08-26T20:31:50.601Z,99868.59
2022-08-26T20:34:39.930Z,99872.91
2022-08-26T20:37:29.251Z,99881.81
2022-08-26T20:40:17.883Z,99878.31
2022-08-26T20:43:07.892Z,99869.44
2022-08-26T20:45:56.431Z,99865.34
2022-08-26T20:48:44.998Z,99859.97
2022-08-26T20:51:33.633Z,99868.59
2022-08-26T20:54:28.141Z,99863.22
2022-08-26T20:57:17.043Z,99859.97
2022-08-26T21:00:08.346Z,99862.09
2022-08-26T21:02:58.223Z,99866.41
2022-08-26T21:05:46.784Z,99864.22
2022-08-26T21:08:37.053Z,99864.22
2022-08-26T21:11:29.323Z,99863.72
2022-08-26T21:14:19.046Z,99863.72
2022-08-26T21:17:09.001Z,99866.41
2022-08-26T21:19:57.609Z,99867.25
2022-08-26T21:22:46.249Z,99861.59
2022-08-26T21:25:34.818Z,99865.34
2022-08-26T21:28:23.393Z,99869.94
2022-08-26T21:31:13.831Z,99869.09
2022-08-26T21:34:03.859Z,99865.59
2022-08-26T21:36:52.513Z,99867.81
2022-08-26T21:39:41.072Z,99876.09
2022-08-26T21:42:33.028Z,99864.22
2022-08-26T21:45:21.844Z,99865.84
2022-08-26T21:48:10.470Z,99861.25
2022-08-26T21:51:00.522Z,99855.06
2022-08-26T21:53:50.070Z,99855.06
2022-08-26T21:56:40.846Z,99841.06
2022-08-26T21:59:29.562Z,99841.06
2022-08-26T22:02:18.143Z,99838.94
2022-08-26T22:05:07.325Z,99844.31
2022-08-26T22:07:57.752Z,99846.44
2022-08-26T22:10:51.647Z,99841.84
2022-08-26T22:13:41.370Z,99836.47
2022-08-26T22:16:29.958Z,99831.41
2022-08-26T22:19:19.991Z,99838.69
2022-08-26T22:22:08.606Z,99842.69
2022-08-26T22:24:58.576Z,99843.47
2022-08-26T22:27:47.175Z,99852.63
2022-08-26T22:30:36.389Z,99857.19
2022-08-26T22:33:25.683Z,99841.84
2022-08-26T22:36:19.126Z,99843.75
2022-08-26T22:39:07.736Z,99843.47
2022-08-26T22:42:00.446Z,99845.59
2022-08-26T22:44:49.075Z,99839.44
2022-08-26T22:47:38.102Z,99842.13
2022-08-26T22:50:26.931Z,99844.81
2022-08-26T22:53:16.698Z,99844.81
2022-08-26T22:56:05.515Z,99850.19
2022-08-26T22:58:55.465Z,99841.53
2022-08-26T23:01:46.829Z,99841.06
2022-08-26T23:04:35.366Z,99848.06
2022-08-26T23:07:24.394Z,99855.56
2022-08-26T23:10:13.242Z,99853.44
2022-08-26T23:13:04.207Z,99861.75
2022-08-26T23:16:02.728Z,99862.00
2022-08-26T23:18:51.446Z,99865.28
2022-08-26T23:21:40.161Z,99860.94
2022-08-26T23:24:28.694Z,99875.47
2022-08-26T23:27:18.433Z,99887.88
2022-08-26T23:30:08.867Z,99882.47
2022-08-26T23:32:58.971Z,99874.63
2022-08-26T23:35:46.554Z,99883.53
2022-08-26T23:38:35.364Z,99884.56
2022-08-26T23:41:25.925Z,99883.53
2022-08-26T23:44:14.518Z,99888.09
2022-08-26T23:47:03.414Z,99892.19
2022-08-26T23:49:53.439Z,99893.25
2022-08-26T23:52:59.514Z,99893.25
2022-08-26T23:55:49.478Z,99892.19
2022-08-26T23:58:38.013Z,99891.13
